sensor_id;sensor_type;location;lat;lon;timestamp;temperature;humidity
30047;DHT22;16878;52.542;13.426;2022-12-24T00:00:10;6.10;99.90
30047;DHT22;16878;52.542;13.426;2022-12-24T00:02:36;6.20;99.90
30047;DHT22;16878;52.542;13.426;2022-12-24T00:05:02;6.10;99.90
30047;DHT22;16878;52.542;13.426;2022-12-24T00:07:28;6.20;99.90
30047;DHT22;16878;52.542;13.426;2022-12-24T00:09:53;6.10;99.90
30047;DHT22;16878;52.542;13.426;2022-12-24T00:12:19;6.10;99.90
30047;DHT22;16878;52.542;13.426;2022-12-24T00:14:44;6.20;99.90
30047;DHT22;16878;52.542;13.426;2022-12-24T00:17:10;6.10;99.90
30047;DHT22;16878;52.542;13.426;2022-12-24T00:19:35;6.10;99.90
30047;DHT22;16878;52.542;13.426;2022-12-24T00:22:01;6.00;99.90
30047;DHT22;16878;52.542;13.426;2022-12-24T00:24:26;6.10;99.90
30047;DHT22;16878;52.542;13.426;2022-12-24T00:26:52;6.10;99.90
30047;DHT22;16878;52.542;13.426;2022-12-24T00:29:17;6.00;99.90
30047;DHT22;16878;52.542;13.426;2022-12-24T00:31:43;6.00;99.90
30047;DHT22;16878;52.542;13.426;2022-12-24T00:34:09;6.00;99.90
30047;DHT22;16878;52.542;13.426;2022-12-24T00:36:34;6.00;99.90
30047;DHT22;16878;52.542;13.426;2022-12-24T00:39:00;5.90;99.90
30047;DHT22;16878;52.542;13.426;2022-12-24T00:41:25;6.00;99.90
30047;DHT22;16878;52.542;13.426;2022-12-24T00:46:19;6.00;99.90
30047;DHT22;16878;52.542;13.426;2022-12-24T00:48:44;6.00;99.90
30047;DHT22;16878;52.542;13.426;2022-12-24T00:51:10;5.90;99.90
30047;DHT22;16878;52.542;13.426;2022-12-24T00:53:35;5.90;99.90
30047;DHT22;16878;52.542;13.426;2022-12-24T00:56:01;5.90;99.90
30047;DHT22;16878;52.542;13.426;2022-12-24T00:58:26;5.90;99.90
30047;DHT22;16878;52.542;13.426;2022-12-24T01:00:52;5.90;99.90
30047;DHT22;16878;52.542;13.426;2022-12-24T01:03:17;5.90;99.90
30047;DHT22;16878;52.542;13.426;2022-12-24T01:05:43;5.90;99.90
30047;DHT22;16878;52.542;13.426;2022-12-24T01:08:08;5.90;99.90
30047;DHT22;16878;52.542;13.426;2022-12-24T01:10:34;6.00;99.90
30047;DHT22;16878;52.542;13.426;2022-12-24T01:13:00;6.00;99.90
30047;DHT22;16878;52.542;13.426;2022-12-24T01:15:26;6.00;99.90
30047;DHT22;16878;52.542;13.426;2022-12-24T01:17:52;5.90;99.90
30047;DHT22;16878;52.542;13.426;2022-12-24T01:20:17;6.00;99.90
30047;DHT22;16878;52.542;13.426;2022-12-24T01:22:43;5.90;99.90
30047;DHT22;16878;52.542;13.426;2022-12-24T01:25:09;5.90;99.90
30047;DHT22;16878;52.542;13.426;2022-12-24T01:27:35;5.90;99.90
30047;DHT22;16878;52.542;13.426;2022-12-24T01:30:00;5.90;99.90
30047;DHT22;16878;52.542;13.426;2022-12-24T01:32:26;5.90;99.90
30047;DHT22;16878;52.542;13.426;2022-12-24T01:34:51;5.90;99.90
30047;DHT22;16878;52.542;13.426;2022-12-24T01:37:20;5.90;99.90
30047;DHT22;16878;52.542;13.426;2022-12-24T01:39:45;5.90;99.90
30047;DHT22;16878;52.542;13.426;2022-12-24T01:42:15;6.00;99.90
30047;DHT22;16878;52.542;13.426;2022-12-24T01:45:21;5.90;99.90
30047;DHT22;16878;52.542;13.426;2022-12-24T01:47:45;6.00;99.90
30047;DHT22;16878;52.542;13.426;2022-12-24T01:50:13;6.00;99.90
30047;DHT22;16878;52.542;13.426;2022-12-24T01:52:39;6.00;99.90
30047;DHT22;16878;52.542;13.426;2022-12-24T01:55:09;6.00;99.90
30047;DHT22;16878;52.542;13.426;2022-12-24T01:57:37;6.00;99.90
30047;DHT22;16878;52.542;13.426;2022-12-24T02:00:05;6.00;99.90
30047;DHT22;16878;52.542;13.426;2022-12-24T02:02:31;6.00;99.90
30047;DHT22;16878;52.542;13.426;2022-12-24T02:05:00;6.10;99.90
30047;DHT22;16878;52.542;13.426;2022-12-24T02:07:26;6.10;99.90
30047;DHT22;16878;52.542;13.426;2022-12-24T02:09:53;6.00;99.90
30047;DHT22;16878;52.542;13.426;2022-12-24T02:12:21;6.00;99.90
30047;DHT22;16878;52.542;13.426;2022-12-24T02:14:46;6.00;99.90
30047;DHT22;16878;52.542;13.426;2022-12-24T02:22:13;6.00;99.90
30047;DHT22;16878;52.542;13.426;2022-12-24T02:29:59;6.10;99.90
30047;DHT22;16878;52.542;13.426;2022-12-24T02:34:59;6.00;99.90
30047;DHT22;16878;52.542;13.426;2022-12-24T02:37:42;6.10;99.90
30047;DHT22;16878;52.542;13.426;2022-12-24T02:40:10;6.00;99.90
30047;DHT22;16878;52.542;13.426;2022-12-24T02:42:39;6.00;99.90
30047;DHT22;16878;52.542;13.426;2022-12-24T02:45:10;6.00;99.90
30047;DHT22;16878;52.542;13.426;2022-12-24T02:47:36;6.00;99.90
30047;DHT22;16878;52.542;13.426;2022-12-24T02:50:02;6.00;99.90
30047;DHT22;16878;52.542;13.426;2022-12-24T02:54:54;6.00;99.90
30047;DHT22;16878;52.542;13.426;2022-12-24T03:00:07;6.10;99.90
30047;DHT22;16878;52.542;13.426;2022-12-24T03:05:34;6.10;99.90
30047;DHT22;16878;52.542;13.426;2022-12-24T03:13:18;6.10;99.90
30047;DHT22;16878;52.542;13.426;2022-12-24T03:15:45;6.10;99.90
30047;DHT22;16878;52.542;13.426;2022-12-24T03:18:11;6.10;99.90
30047;DHT22;16878;52.542;13.426;2022-12-24T03:20:48;6.10;99.90
30047;DHT22;16878;52.542;13.426;2022-12-24T03:23:14;6.10;99.90
30047;DHT22;16878;52.542;13.426;2022-12-24T03:25:41;6.10;99.90
30047;DHT22;16878;52.542;13.426;2022-12-24T03:28:07;6.10;99.90
30047;DHT22;16878;52.542;13.426;2022-12-24T03:30:34;6.10;99.90
30047;DHT22;16878;52.542;13.426;2022-12-24T03:33:00;6.10;99.90
30047;DHT22;16878;52.542;13.426;2022-12-24T03:35:26;6.00;99.90
30047;DHT22;16878;52.542;13.426;2022-12-24T03:37:51;6.00;99.90
30047;DHT22;16878;52.542;13.426;2022-12-24T03:40:17;6.00;99.90
30047;DHT22;16878;52.542;13.426;2022-12-24T03:42:42;6.00;99.90
30047;DHT22;16878;52.542;13.426;2022-12-24T03:45:08;6.10;99.90
30047;DHT22;16878;52.542;13.426;2022-12-24T03:47:34;6.10;99.90
30047;DHT22;16878;52.542;13.426;2022-12-24T03:50:00;6.00;99.90
30047;DHT22;16878;52.542;13.426;2022-12-24T03:52:25;6.00;99.90
30047;DHT22;16878;52.542;13.426;2022-12-24T03:54:51;6.00;99.90
30047;DHT22;16878;52.542;13.426;2022-12-24T03:57:16;6.00;99.90
30047;DHT22;16878;52.542;13.426;2022-12-24T03:59:42;6.00;99.90
30047;DHT22;16878;52.542;13.426;2022-12-24T04:02:08;6.00;99.90
30047;DHT22;16878;52.542;13.426;2022-12-24T04:04:33;5.90;99.90
30047;DHT22;16878;52.542;13.426;2022-12-24T04:07:01;6.00;99.90
30047;DHT22;16878;52.542;13.426;2022-12-24T04:09:26;6.00;99.90
30047;DHT22;16878;52.542;13.426;2022-12-24T04:11:52;5.90;99.90
30047;DHT22;16878;52.542;13.426;2022-12-24T04:14:17;6.00;99.90
30047;DHT22;16878;52.542;13.426;2022-12-24T04:16:45;6.00;99.90
30047;DHT22;16878;52.542;13.426;2022-12-24T04:19:11;5.90;99.90
30047;DHT22;16878;52.542;13.426;2022-12-24T04:21:36;5.90;99.90
30047;DHT22;16878;52.542;13.426;2022-12-24T04:24:02;5.90;99.90
30047;DHT22;16878;52.542;13.426;2022-12-24T04:26:27;5.80;99.90
30047;DHT22;16878;52.542;13.426;2022-12-24T04:28:53;5.80;99.90
30047;DHT22;16878;52.542;13.426;2022-12-24T04:31:19;5.90;99.90
30047;DHT22;16878;52.542;13.426;2022-12-24T04:33:44;5.90;99.90
30047;DHT22;16878;52.542;13.426;2022-12-24T04:36:14;5.90;99.90
30047;DHT22;16878;52.542;13.426;2022-12-24T04:38:43;5.90;99.90
30047;DHT22;16878;52.542;13.426;2022-12-24T04:41:10;6.00;99.90
30047;DHT22;16878;52.542;13.426;2022-12-24T04:43:36;6.00;99.90
30047;DHT22;16878;52.542;13.426;2022-12-24T04:46:09;6.00;99.90
30047;DHT22;16878;52.542;13.426;2022-12-24T04:48:35;6.00;99.90
30047;DHT22;16878;52.542;13.426;2022-12-24T04:51:02;6.00;99.90
30047;DHT22;16878;52.542;13.426;2022-12-24T04:53:27;6.00;99.90
30047;DHT22;16878;52.542;13.426;2022-12-24T04:55:53;6.10;99.90
30047;DHT22;16878;52.542;13.426;2022-12-24T04:58:19;6.00;99.90
30047;DHT22;16878;52.542;13.426;2022-12-24T05:00:44;6.00;99.90
30047;DHT22;16878;52.542;13.426;2022-12-24T05:03:10;5.90;99.90
30047;DHT22;16878;52.542;13.426;2022-12-24T05:05:35;6.00;99.90
30047;DHT22;16878;52.542;13.426;2022-12-24T05:08:01;6.00;99.90
30047;DHT22;16878;52.542;13.426;2022-12-24T05:10:27;6.00;99.90
30047;DHT22;16878;52.542;13.426;2022-12-24T05:12:52;6.00;99.90
30047;DHT22;16878;52.542;13.426;2022-12-24T05:15:18;6.00;99.90
30047;DHT22;16878;52.542;13.426;2022-12-24T05:17:43;6.00;99.90
30047;DHT22;16878;52.542;13.426;2022-12-24T05:20:09;6.00;99.90
30047;DHT22;16878;52.542;13.426;2022-12-24T05:22:34;6.00;99.90
30047;DHT22;16878;52.542;13.426;2022-12-24T05:25:18;6.00;99.90
30047;DHT22;16878;52.542;13.426;2022-12-24T05:28:02;6.00;99.90
30047;DHT22;16878;52.542;13.426;2022-12-24T05:30:28;6.00;99.90
30047;DHT22;16878;52.542;13.426;2022-12-24T05:32:53;6.00;99.90
30047;DHT22;16878;52.542;13.426;2022-12-24T05:35:19;6.00;99.90
30047;DHT22;16878;52.542;13.426;2022-12-24T05:37:44;5.90;99.90
30047;DHT22;16878;52.542;13.426;2022-12-24T05:40:10;5.90;99.90
30047;DHT22;16878;52.542;13.426;2022-12-24T05:42:35;5.90;99.90
30047;DHT22;16878;52.542;13.426;2022-12-24T05:45:01;5.90;99.90
30047;DHT22;16878;52.542;13.426;2022-12-24T05:47:26;5.90;99.90
30047;DHT22;16878;52.542;13.426;2022-12-24T05:49:52;5.90;99.90
30047;DHT22;16878;52.542;13.426;2022-12-24T05:52:17;5.90;99.90
30047;DHT22;16878;52.542;13.426;2022-12-24T05:54:43;5.90;99.90
30047;DHT22;16878;52.542;13.426;2022-12-24T05:57:08;5.90;99.90
30047;DHT22;16878;52.542;13.426;2022-12-24T05:59:34;5.90;99.90
30047;DHT22;16878;52.542;13.426;2022-12-24T06:01:59;5.90;99.90
30047;DHT22;16878;52.542;13.426;2022-12-24T06:04:25;5.90;99.90
30047;DHT22;16878;52.542;13.426;2022-12-24T06:06:50;5.90;99.90
30047;DHT22;16878;52.542;13.426;2022-12-24T06:09:16;5.90;99.90
30047;DHT22;16878;52.542;13.426;2022-12-24T06:11:42;5.90;99.90
30047;DHT22;16878;52.542;13.426;2022-12-24T06:14:07;5.90;99.90
30047;DHT22;16878;52.542;13.426;2022-12-24T06:16:33;6.00;99.90
30047;DHT22;16878;52.542;13.426;2022-12-24T06:18:58;5.90;99.90
30047;DHT22;16878;52.542;13.426;2022-12-24T06:21:24;5.90;99.90
30047;DHT22;16878;52.542;13.426;2022-12-24T06:23:49;5.90;99.90
30047;DHT22;16878;52.542;13.426;2022-12-24T06:26:16;5.90;99.90
30047;DHT22;16878;52.542;13.426;2022-12-24T06:28:42;5.90;99.90
30047;DHT22;16878;52.542;13.426;2022-12-24T06:31:09;5.90;99.90
30047;DHT22;16878;52.542;13.426;2022-12-24T06:33:36;5.90;99.90
30047;DHT22;16878;52.542;13.426;2022-12-24T06:36:01;5.90;99.90
30047;DHT22;16878;52.542;13.426;2022-12-24T06:38:30;5.90;99.90
30047;DHT22;16878;52.542;13.426;2022-12-24T06:40:55;6.00;99.90
30047;DHT22;16878;52.542;13.426;2022-12-24T06:43:21;5.90;99.90
30047;DHT22;16878;52.542;13.426;2022-12-24T06:45:46;5.90;99.90
30047;DHT22;16878;52.542;13.426;2022-12-24T06:48:13;5.90;99.90
30047;DHT22;16878;52.542;13.426;2022-12-24T06:50:39;5.90;99.90
30047;DHT22;16878;52.542;13.426;2022-12-24T06:53:04;5.90;99.90
30047;DHT22;16878;52.542;13.426;2022-12-24T06:55:30;5.90;99.90
30047;DHT22;16878;52.542;13.426;2022-12-24T06:57:56;6.00;99.90
30047;DHT22;16878;52.542;13.426;2022-12-24T07:00:21;5.90;99.90
30047;DHT22;16878;52.542;13.426;2022-12-24T07:02:47;5.90;99.90
30047;DHT22;16878;52.542;13.426;2022-12-24T07:05:13;5.90;99.90
30047;DHT22;16878;52.542;13.426;2022-12-24T07:07:39;5.90;99.90
30047;DHT22;16878;52.542;13.426;2022-12-24T07:10:05;5.90;99.90
30047;DHT22;16878;52.542;13.426;2022-12-24T07:12:31;5.80;99.90
30047;DHT22;16878;52.542;13.426;2022-12-24T07:14:57;5.80;99.90
30047;DHT22;16878;52.542;13.426;2022-12-24T07:17:23;5.80;99.90
30047;DHT22;16878;52.542;13.426;2022-12-24T07:19:48;5.90;99.90
30047;DHT22;16878;52.542;13.426;2022-12-24T07:22:14;5.90;99.90
30047;DHT22;16878;52.542;13.426;2022-12-24T07:24:40;5.80;99.90
30047;DHT22;16878;52.542;13.426;2022-12-24T07:27:06;5.90;99.90
30047;DHT22;16878;52.542;13.426;2022-12-24T07:29:31;5.80;99.90
30047;DHT22;16878;52.542;13.426;2022-12-24T07:31:57;5.80;99.90
30047;DHT22;16878;52.542;13.426;2022-12-24T07:34:22;5.80;99.90
30047;DHT22;16878;52.542;13.426;2022-12-24T07:36:48;5.90;99.90
30047;DHT22;16878;52.542;13.426;2022-12-24T07:39:13;5.90;99.90
30047;DHT22;16878;52.542;13.426;2022-12-24T07:41:39;5.90;99.90
30047;DHT22;16878;52.542;13.426;2022-12-24T07:44:04;5.90;99.90
30047;DHT22;16878;52.542;13.426;2022-12-24T07:46:30;5.80;99.90
30047;DHT22;16878;52.542;13.426;2022-12-24T07:48:55;5.90;99.90
30047;DHT22;16878;52.542;13.426;2022-12-24T07:51:21;5.90;99.90
30047;DHT22;16878;52.542;13.426;2022-12-24T07:53:46;5.90;99.90
30047;DHT22;16878;52.542;13.426;2022-12-24T07:56:15;5.90;99.90
30047;DHT22;16878;52.542;13.426;2022-12-24T07:58:44;5.90;99.90
30047;DHT22;16878;52.542;13.426;2022-12-24T08:01:13;6.00;99.90
30047;DHT22;16878;52.542;13.426;2022-12-24T08:03:38;6.00;99.90
30047;DHT22;16878;52.542;13.426;2022-12-24T08:06:04;6.00;99.90
30047;DHT22;16878;52.542;13.426;2022-12-24T08:08:30;6.10;99.90
30047;DHT22;16878;52.542;13.426;2022-12-24T08:10:59;6.10;99.90
30047;DHT22;16878;52.542;13.426;2022-12-24T08:13:24;6.10;99.90
30047;DHT22;16878;52.542;13.426;2022-12-24T08:15:50;6.00;99.90
30047;DHT22;16878;52.542;13.426;2022-12-24T08:18:15;6.10;99.90
30047;DHT22;16878;52.542;13.426;2022-12-24T08:20:41;6.00;99.90
30047;DHT22;16878;52.542;13.426;2022-12-24T08:23:07;6.10;99.90
30047;DHT22;16878;52.542;13.426;2022-12-24T08:25:33;6.10;99.90
30047;DHT22;16878;52.542;13.426;2022-12-24T08:27:58;6.10;99.90
30047;DHT22;16878;52.542;13.426;2022-12-24T08:30:24;6.10;99.90
30047;DHT22;16878;52.542;13.426;2022-12-24T08:32:50;6.00;99.90
30047;DHT22;16878;52.542;13.426;2022-12-24T08:35:15;6.00;99.90
30047;DHT22;16878;52.542;13.426;2022-12-24T08:37:41;6.00;99.90
30047;DHT22;16878;52.542;13.426;2022-12-24T08:40:07;6.00;99.90
30047;DHT22;16878;52.542;13.426;2022-12-24T08:42:32;6.00;99.90
30047;DHT22;16878;52.542;13.426;2022-12-24T08:44:58;6.00;99.90
30047;DHT22;16878;52.542;13.426;2022-12-24T08:47:24;6.00;99.90
30047;DHT22;16878;52.542;13.426;2022-12-24T08:49:49;6.10;99.90
30047;DHT22;16878;52.542;13.426;2022-12-24T08:52:15;6.00;99.90
30047;DHT22;16878;52.542;13.426;2022-12-24T08:54:40;6.10;99.90
30047;DHT22;16878;52.542;13.426;2022-12-24T08:57:06;6.10;99.90
30047;DHT22;16878;52.542;13.426;2022-12-24T08:59:32;6.10;99.90
30047;DHT22;16878;52.542;13.426;2022-12-24T09:01:57;6.10;99.90
30047;DHT22;16878;52.542;13.426;2022-12-24T09:04:23;6.10;99.90
30047;DHT22;16878;52.542;13.426;2022-12-24T09:06:48;6.10;99.90
30047;DHT22;16878;52.542;13.426;2022-12-24T09:09:14;6.20;99.90
30047;DHT22;16878;52.542;13.426;2022-12-24T09:11:39;6.20;99.90
30047;DHT22;16878;52.542;13.426;2022-12-24T09:14:05;6.20;99.90
30047;DHT22;16878;52.542;13.426;2022-12-24T09:16:30;6.20;99.90
30047;DHT22;16878;52.542;13.426;2022-12-24T09:18:56;6.20;99.90
30047;DHT22;16878;52.542;13.426;2022-12-24T09:21:22;6.20;99.90
30047;DHT22;16878;52.542;13.426;2022-12-24T09:23:48;6.20;99.90
30047;DHT22;16878;52.542;13.426;2022-12-24T09:26:20;6.20;99.90
30047;DHT22;16878;52.542;13.426;2022-12-24T09:28:47;6.20;99.90
30047;DHT22;16878;52.542;13.426;2022-12-24T09:31:12;6.20;99.90
30047;DHT22;16878;52.542;13.426;2022-12-24T09:33:39;6.20;99.90
30047;DHT22;16878;52.542;13.426;2022-12-24T09:36:05;6.20;99.90
30047;DHT22;16878;52.542;13.426;2022-12-24T09:38:31;6.20;99.90
30047;DHT22;16878;52.542;13.426;2022-12-24T09:40:57;6.20;99.90
30047;DHT22;16878;52.542;13.426;2022-12-24T09:43:26;6.20;99.90
30047;DHT22;16878;52.542;13.426;2022-12-24T09:46:38;6.20;99.90
30047;DHT22;16878;52.542;13.426;2022-12-24T09:48:40;6.20;99.90
30047;DHT22;16878;52.542;13.426;2022-12-24T09:51:10;6.20;99.90
30047;DHT22;16878;52.542;13.426;2022-12-24T09:56:03;6.20;99.90
30047;DHT22;16878;52.542;13.426;2022-12-24T09:58:35;6.20;99.90
30047;DHT22;16878;52.542;13.426;2022-12-24T10:01:02;6.20;99.90
30047;DHT22;16878;52.542;13.426;2022-12-24T10:03:27;6.30;99.90
30047;DHT22;16878;52.542;13.426;2022-12-24T10:08:28;6.30;99.90
30047;DHT22;16878;52.542;13.426;2022-12-24T10:10:59;6.30;99.90
30047;DHT22;16878;52.542;13.426;2022-12-24T10:16:11;6.30;99.90
30047;DHT22;16878;52.542;13.426;2022-12-24T10:21:14;6.40;99.90
30047;DHT22;16878;52.542;13.426;2022-12-24T10:23:47;6.40;99.90
30047;DHT22;16878;52.542;13.426;2022-12-24T10:29:00;6.50;99.90
30047;DHT22;16878;52.542;13.426;2022-12-24T10:31:37;6.60;99.90
30047;DHT22;16878;52.542;13.426;2022-12-24T10:34:05;6.60;99.90
30047;DHT22;16878;52.542;13.426;2022-12-24T10:36:37;6.60;99.90
30047;DHT22;16878;52.542;13.426;2022-12-24T10:39:03;6.70;99.90
30047;DHT22;16878;52.542;13.426;2022-12-24T10:41:28;6.80;99.90
30047;DHT22;16878;52.542;13.426;2022-12-24T10:43:54;6.80;99.90
30047;DHT22;16878;52.542;13.426;2022-12-24T10:46:35;6.80;99.90
30047;DHT22;16878;52.542;13.426;2022-12-24T10:49:06;6.80;99.90
30047;DHT22;16878;52.542;13.426;2022-12-24T10:51:48;6.90;99.90
30047;DHT22;16878;52.542;13.426;2022-12-24T10:54:19;7.00;99.90
30047;DHT22;16878;52.542;13.426;2022-12-24T10:56:45;7.00;99.90
30047;DHT22;16878;52.542;13.426;2022-12-24T10:59:27;7.10;99.90
30047;DHT22;16878;52.542;13.426;2022-12-24T11:01:54;7.20;99.90
30047;DHT22;16878;52.542;13.426;2022-12-24T11:04:21;7.20;99.90
30047;DHT22;16878;52.542;13.426;2022-12-24T11:07:06;7.30;99.90
30047;DHT22;16878;52.542;13.426;2022-12-24T11:09:41;7.30;99.90
30047;DHT22;16878;52.542;13.426;2022-12-24T11:12:21;7.30;99.90
30047;DHT22;16878;52.542;13.426;2022-12-24T11:14:46;7.40;99.90
30047;DHT22;16878;52.542;13.426;2022-12-24T11:17:19;7.40;99.90
30047;DHT22;16878;52.542;13.426;2022-12-24T11:19:46;7.40;99.90
30047;DHT22;16878;52.542;13.426;2022-12-24T11:22:17;7.40;99.90
30047;DHT22;16878;52.542;13.426;2022-12-24T11:24:43;7.30;99.90
30047;DHT22;16878;52.542;13.426;2022-12-24T11:27:23;7.30;99.90
30047;DHT22;16878;52.542;13.426;2022-12-24T11:29:58;7.30;99.90
30047;DHT22;16878;52.542;13.426;2022-12-24T11:32:35;7.30;99.90
30047;DHT22;16878;52.542;13.426;2022-12-24T11:35:04;7.30;99.90
30047;DHT22;16878;52.542;13.426;2022-12-24T11:37:30;7.40;99.90
30047;DHT22;16878;52.542;13.426;2022-12-24T11:39:59;7.40;99.90
30047;DHT22;16878;52.542;13.426;2022-12-24T11:44:54;7.40;99.90
30047;DHT22;16878;52.542;13.426;2022-12-24T11:47:30;7.40;99.90
30047;DHT22;16878;52.542;13.426;2022-12-24T11:50:12;7.50;99.90
30047;DHT22;16878;52.542;13.426;2022-12-24T11:52:42;7.50;99.90
30047;DHT22;16878;52.542;13.426;2022-12-24T11:58:17;7.60;99.90
30047;DHT22;16878;52.542;13.426;2022-12-24T12:00:44;7.70;99.90
30047;DHT22;16878;52.542;13.426;2022-12-24T12:03:23;7.60;99.90
30047;DHT22;16878;52.542;13.426;2022-12-24T12:05:50;7.60;99.90
30047;DHT22;16878;52.542;13.426;2022-12-24T12:08:17;7.60;99.90
30047;DHT22;16878;52.542;13.426;2022-12-24T12:10:44;7.60;99.90
30047;DHT22;16878;52.542;13.426;2022-12-24T12:15:38;7.60;99.90
30047;DHT22;16878;52.542;13.426;2022-12-24T12:18:23;7.60;99.90
30047;DHT22;16878;52.542;13.426;2022-12-24T12:20:57;7.60;99.90
30047;DHT22;16878;52.542;13.426;2022-12-24T12:23:34;7.50;99.90
30047;DHT22;16878;52.542;13.426;2022-12-24T12:28:50;7.60;99.90
30047;DHT22;16878;52.542;13.426;2022-12-24T12:31:26;7.60;99.90
30047;DHT22;16878;52.542;13.426;2022-12-24T12:34:07;7.60;99.90
30047;DHT22;16878;52.542;13.426;2022-12-24T12:36:36;7.60;99.90
30047;DHT22;16878;52.542;13.426;2022-12-24T12:39:03;7.60;99.90
30047;DHT22;16878;52.542;13.426;2022-12-24T12:44:35;7.70;99.90
30047;DHT22;16878;52.542;13.426;2022-12-24T12:49:43;7.80;99.90
30047;DHT22;16878;52.542;13.426;2022-12-24T12:54:50;7.80;99.90
30047;DHT22;16878;52.542;13.426;2022-12-24T12:57:20;7.80;99.90
30047;DHT22;16878;52.542;13.426;2022-12-24T12:59:52;7.80;99.90
30047;DHT22;16878;52.542;13.426;2022-12-24T13:02:28;7.80;99.90
30047;DHT22;16878;52.542;13.426;2022-12-24T13:10:31;7.90;99.90
30047;DHT22;16878;52.542;13.426;2022-12-24T13:13:08;7.90;99.90
30047;DHT22;16878;52.542;13.426;2022-12-24T13:16:01;7.90;99.90
30047;DHT22;16878;52.542;13.426;2022-12-24T13:18:36;7.90;99.90
30047;DHT22;16878;52.542;13.426;2022-12-24T13:21:04;7.90;99.90
30047;DHT22;16878;52.542;13.426;2022-12-24T13:23:30;7.90;99.90
30047;DHT22;16878;52.542;13.426;2022-12-24T13:25:56;8.00;99.90
30047;DHT22;16878;52.542;13.426;2022-12-24T13:33:47;7.90;99.90
30047;DHT22;16878;52.542;13.426;2022-12-24T13:36:12;7.80;99.90
30047;DHT22;16878;52.542;13.426;2022-12-24T13:38:40;7.80;99.90
30047;DHT22;16878;52.542;13.426;2022-12-24T13:44:03;7.90;99.90
30047;DHT22;16878;52.542;13.426;2022-12-24T13:49:27;7.90;99.90
30047;DHT22;16878;52.542;13.426;2022-12-24T13:54:30;7.90;99.90
30047;DHT22;16878;52.542;13.426;2022-12-24T13:56:55;7.80;99.90
30047;DHT22;16878;52.542;13.426;2022-12-24T14:01:53;7.70;99.90
30047;DHT22;16878;52.542;13.426;2022-12-24T14:04:22;7.70;99.90
30047;DHT22;16878;52.542;13.426;2022-12-24T14:06:48;7.70;99.90
30047;DHT22;16878;52.542;13.426;2022-12-24T14:09:18;7.70;99.90
30047;DHT22;16878;52.542;13.426;2022-12-24T14:14:32;7.80;99.90
30047;DHT22;16878;52.542;13.426;2022-12-24T14:16:58;7.80;99.90
30047;DHT22;16878;52.542;13.426;2022-12-24T14:19:25;7.80;99.90
30047;DHT22;16878;52.542;13.426;2022-12-24T14:21:57;7.70;99.90
30047;DHT22;16878;52.542;13.426;2022-12-24T14:24:36;7.70;99.90
30047;DHT22;16878;52.542;13.426;2022-12-24T14:27:21;7.70;99.90
30047;DHT22;16878;52.542;13.426;2022-12-24T14:32:14;7.90;99.90
30047;DHT22;16878;52.542;13.426;2022-12-24T14:34:40;7.90;99.90
30047;DHT22;16878;52.542;13.426;2022-12-24T14:37:07;7.80;99.90
30047;DHT22;16878;52.542;13.426;2022-12-24T14:39:35;7.70;99.90
30047;DHT22;16878;52.542;13.426;2022-12-24T14:50:20;7.50;99.90
30047;DHT22;16878;52.542;13.426;2022-12-24T14:52:55;7.40;99.90
30047;DHT22;16878;52.542;13.426;2022-12-24T14:58:12;7.60;99.90
30047;DHT22;16878;52.542;13.426;2022-12-24T15:00:38;7.60;99.90
30047;DHT22;16878;52.542;13.426;2022-12-24T15:03:11;7.70;99.90
30047;DHT22;16878;52.542;13.426;2022-12-24T15:05:37;7.70;99.90
30047;DHT22;16878;52.542;13.426;2022-12-24T15:08:06;7.70;99.90
30047;DHT22;16878;52.542;13.426;2022-12-24T15:10:36;7.80;99.90
30047;DHT22;16878;52.542;13.426;2022-12-24T15:13:08;7.80;99.90
30047;DHT22;16878;52.542;13.426;2022-12-24T15:15:34;7.80;99.90
30047;DHT22;16878;52.542;13.426;2022-12-24T15:18:00;7.70;99.90
30047;DHT22;16878;52.542;13.426;2022-12-24T15:20:27;7.50;99.90
30047;DHT22;16878;52.542;13.426;2022-12-24T15:22:54;7.40;99.90
30047;DHT22;16878;52.542;13.426;2022-12-24T15:25:24;7.30;99.90
30047;DHT22;16878;52.542;13.426;2022-12-24T15:27:51;7.30;99.90
30047;DHT22;16878;52.542;13.426;2022-12-24T15:30:19;7.30;99.90
30047;DHT22;16878;52.542;13.426;2022-12-24T15:32:44;7.20;99.90
30047;DHT22;16878;52.542;13.426;2022-12-24T15:35:29;7.20;99.90
30047;DHT22;16878;52.542;13.426;2022-12-24T15:37:56;7.20;99.90
30047;DHT22;16878;52.542;13.426;2022-12-24T15:40:22;7.10;99.90
30047;DHT22;16878;52.542;13.426;2022-12-24T15:42:49;7.10;99.90
30047;DHT22;16878;52.542;13.426;2022-12-24T15:45:16;7.00;99.90
30047;DHT22;16878;52.542;13.426;2022-12-24T15:47:43;7.00;99.90
30047;DHT22;16878;52.542;13.426;2022-12-24T15:50:15;7.00;99.90
30047;DHT22;16878;52.542;13.426;2022-12-24T15:52:43;7.00;99.90
30047;DHT22;16878;52.542;13.426;2022-12-24T15:55:28;7.00;99.90
30047;DHT22;16878;52.542;13.426;2022-12-24T15:57:54;7.00;99.90
30047;DHT22;16878;52.542;13.426;2022-12-24T16:00:21;6.90;99.90
30047;DHT22;16878;52.542;13.426;2022-12-24T16:02:47;6.90;99.90
30047;DHT22;16878;52.542;13.426;2022-12-24T16:05:33;6.80;99.90
30047;DHT22;16878;52.542;13.426;2022-12-24T16:08:03;6.80;99.90
30047;DHT22;16878;52.542;13.426;2022-12-24T16:10:37;6.80;99.90
30047;DHT22;16878;52.542;13.426;2022-12-24T16:13:27;6.80;99.90
30047;DHT22;16878;52.542;13.426;2022-12-24T16:15:59;6.80;99.90
30047;DHT22;16878;52.542;13.426;2022-12-24T16:18:27;6.80;99.90
30047;DHT22;16878;52.542;13.426;2022-12-24T16:20:55;6.80;99.90
30047;DHT22;16878;52.542;13.426;2022-12-24T16:23:22;6.80;99.90
30047;DHT22;16878;52.542;13.426;2022-12-24T16:25:48;6.80;99.90
30047;DHT22;16878;52.542;13.426;2022-12-24T16:28:14;6.80;99.90
30047;DHT22;16878;52.542;13.426;2022-12-24T16:30:40;6.70;99.90
30047;DHT22;16878;52.542;13.426;2022-12-24T16:33:11;6.60;99.90
30047;DHT22;16878;52.542;13.426;2022-12-24T16:35:37;6.60;99.90
30047;DHT22;16878;52.542;13.426;2022-12-24T16:38:03;6.60;99.90
30047;DHT22;16878;52.542;13.426;2022-12-24T16:40:28;6.60;99.90
30047;DHT22;16878;52.542;13.426;2022-12-24T16:42:57;6.50;99.90
30047;DHT22;16878;52.542;13.426;2022-12-24T16:45:41;6.50;99.90
30047;DHT22;16878;52.542;13.426;2022-12-24T16:48:10;6.50;99.90
30047;DHT22;16878;52.542;13.426;2022-12-24T16:50:41;6.40;99.90
30047;DHT22;16878;52.542;13.426;2022-12-24T16:53:07;6.40;99.90
30047;DHT22;16878;52.542;13.426;2022-12-24T16:55:33;6.40;99.90
30047;DHT22;16878;52.542;13.426;2022-12-24T16:58:02;6.50;99.90
30047;DHT22;16878;52.542;13.426;2022-12-24T17:00:27;6.60;99.90
30047;DHT22;16878;52.542;13.426;2022-12-24T17:02:53;6.60;99.90
30047;DHT22;16878;52.542;13.426;2022-12-24T17:05:18;6.50;99.90
30047;DHT22;16878;52.542;13.426;2022-12-24T17:07:50;6.50;99.90
30047;DHT22;16878;52.542;13.426;2022-12-24T17:10:16;6.50;99.90
30047;DHT22;16878;52.542;13.426;2022-12-24T17:12:45;6.40;99.90